AFR1ND LMML-LFSB
Flight info
| Callsign | AFR1ND |
|---|---|
| Flight time | 2h 6m |
| Altitude | 34000 |
| Route | GZO M622 SOPIR DCT PIVOP DCT GIANO DCT BETOT DCT POKAV DCT PODOX DCT SPEZI DCT PUNSA DCT LUMEL |
| Aircraft | A320/M-SDE3FGHIRWY/LB1 |
Departure
| Time | 2026-05-06 14:39 |
|---|---|
| Airport | Malta International Airport (LMML) |
Arrival
| Time | 2026-05-06 16:46 |
|---|---|
| Airport | EuroAirport Basel–Mulhouse–Freiburg (LFSB) |
| Time | Latitude | Longitude | Altitude | Speed | Heading |
|---|---|---|---|---|---|
| 2026-05-06 14:12 | 35.85998 | 14.47710 | 272 ft | 0 kts | 88° |
| 2026-05-06 14:31 | 35.85998 | 14.47698 | 274 ft | 4 kts | 88° |
| 2026-05-06 14:31 | 35.85997 | 14.47670 | 275 ft | 4 kts | 93° |
| 2026-05-06 14:32 | 35.86004 | 14.47640 | 279 ft | 4 kts | 132° |
| 2026-05-06 14:32 | 35.86021 | 14.47620 | 276 ft | 1 kts | 135° |
| 2026-05-06 14:32 | 35.86024 | 14.47616 | 274 ft | 0 kts | 135° |
| 2026-05-06 14:35 | 35.86023 | 14.47617 | 275 ft | 1 kts | 135° |
| 2026-05-06 14:35 | 35.86007 | 14.47637 | 279 ft | 5 kts | 134° |
| 2026-05-06 14:35 | 35.85982 | 14.47675 | 274 ft | 7 kts | 129° |
| 2026-05-06 14:36 | 35.85946 | 14.47722 | 272 ft | 9 kts | 135° |
| 2026-05-06 14:36 | 35.85895 | 14.47736 | 272 ft | 8 kts | 222° |
| 2026-05-06 14:36 | 35.85874 | 14.47675 | 272 ft | 7 kts | 249° |
| 2026-05-06 14:36 | 35.85850 | 14.47642 | 272 ft | 4 kts | 171° |
| 2026-05-06 14:37 | 35.85829 | 14.47659 | 272 ft | 4 kts | 143° |
| 2026-05-06 14:37 | 35.85804 | 14.47686 | 272 ft | 6 kts | 136° |
| 2026-05-06 14:37 | 35.85761 | 14.47735 | 272 ft | 10 kts | 136° |
| 2026-05-06 14:37 | 35.85700 | 14.47806 | 273 ft | 14 kts | 136° |
| 2026-05-06 14:38 | 35.85626 | 14.47898 | 272 ft | 17 kts | 135° |
| 2026-05-06 14:38 | 35.85520 | 14.48033 | 272 ft | 34 kts | 133° |
| 2026-05-06 14:38 | 35.85193 | 14.48442 | 272 ft | 98 kts | 135° |
| 2026-05-06 14:38 | 35.84576 | 14.49204 | 265 ft | 149 kts | 135° |
| 2026-05-06 14:39 | 35.83834 | 14.50109 | 887 ft | 149 kts | 130° |
| 2026-05-06 14:39 | 35.83100 | 14.51014 | 1608 ft | 150 kts | 140° |
| 2026-05-06 14:39 | 35.82197 | 14.51794 | 2027 ft | 169 kts | 153° |
| 2026-05-06 14:39 | 35.81022 | 14.52323 | 2346 ft | 192 kts | 167° |
| 2026-05-06 14:40 | 35.79612 | 14.52445 | 2482 ft | 214 kts | 184° |
| 2026-05-06 14:40 | 35.78123 | 14.51972 | 2672 ft | 232 kts | 201° |
| 2026-05-06 14:40 | 35.76726 | 14.50801 | 3288 ft | 253 kts | 221° |
| 2026-05-06 14:40 | 35.75670 | 14.49007 | 4140 ft | 263 kts | 235° |
| 2026-05-06 14:41 | 35.74729 | 14.47060 | 5073 ft | 266 kts | 235° |
| 2026-05-06 14:41 | 35.73775 | 14.45097 | 5981 ft | 269 kts | 235° |
| 2026-05-06 14:41 | 35.72815 | 14.43112 | 6859 ft | 270 kts | 238° |
| 2026-05-06 14:41 | 35.72192 | 14.40896 | 7673 ft | 281 kts | 258° |
| 2026-05-06 14:42 | 35.72270 | 14.38466 | 8517 ft | 291 kts | 280° |
| 2026-05-06 14:42 | 35.73099 | 14.36172 | 9385 ft | 299 kts | 303° |
| 2026-05-06 14:42 | 35.74610 | 14.34397 | 10241 ft | 305 kts | 327° |
| 2026-05-06 14:42 | 35.76579 | 14.33290 | 10791 ft | 322 kts | 336° |
| 2026-05-06 14:43 | 35.78740 | 14.32257 | 11041 ft | 345 kts | 337° |
| 2026-05-06 14:43 | 35.81062 | 14.31176 | 11234 ft | 368 kts | 338° |
| 2026-05-06 14:43 | 35.83506 | 14.30049 | 11690 ft | 379 kts | 337° |
| 2026-05-06 14:43 | 35.85992 | 14.28905 | 12384 ft | 383 kts | 337° |
| 2026-05-06 14:44 | 35.88495 | 14.27743 | 13117 ft | 386 kts | 336° |
| 2026-05-06 14:44 | 35.91022 | 14.26558 | 13835 ft | 389 kts | 336° |
| 2026-05-06 14:44 | 35.93562 | 14.25359 | 14460 ft | 393 kts | 336° |
| 2026-05-06 14:45 | 35.98665 | 14.22934 | 15668 ft | 399 kts | 336° |
| 2026-05-06 14:45 | 36.01269 | 14.21693 | 16262 ft | 402 kts | 336° |
| 2026-05-06 14:45 | 36.03826 | 14.20283 | 16828 ft | 403 kts | 328° |
| 2026-05-06 14:45 | 36.06175 | 14.18385 | 17404 ft | 404 kts | 321° |
| 2026-05-06 14:46 | 36.08459 | 14.16357 | 17982 ft | 407 kts | 321° |
| 2026-05-06 14:46 | 36.10775 | 14.14304 | 18515 ft | 410 kts | 321° |
| 2026-05-06 14:46 | 36.13103 | 14.12246 | 19008 ft | 413 kts | 321° |
| 2026-05-06 14:46 | 36.15440 | 14.10176 | 19529 ft | 414 kts | 321° |
| 2026-05-06 14:47 | 36.17785 | 14.08096 | 20044 ft | 416 kts | 321° |
| 2026-05-06 14:47 | 36.20148 | 14.06000 | 20560 ft | 418 kts | 321° |
| 2026-05-06 14:47 | 36.22515 | 14.03902 | 21042 ft | 420 kts | 321° |
| 2026-05-06 14:47 | 36.24889 | 14.01795 | 21539 ft | 422 kts | 321° |
| 2026-05-06 14:48 | 36.27287 | 13.99659 | 22022 ft | 424 kts | 321° |
| 2026-05-06 14:48 | 36.29682 | 13.97524 | 22496 ft | 426 kts | 321° |
| 2026-05-06 14:48 | 36.32096 | 13.95370 | 22953 ft | 428 kts | 321° |
| 2026-05-06 14:48 | 36.34514 | 13.93212 | 23405 ft | 429 kts | 321° |
| 2026-05-06 14:49 | 36.36947 | 13.91040 | 23800 ft | 431 kts | 321° |
| 2026-05-06 14:49 | 36.39379 | 13.88868 | 24174 ft | 433 kts | 321° |
| 2026-05-06 14:49 | 36.41836 | 13.86672 | 24529 ft | 435 kts | 321° |
| 2026-05-06 14:49 | 36.44302 | 13.84467 | 24883 ft | 437 kts | 321° |
| 2026-05-06 14:50 | 36.46773 | 13.82257 | 25248 ft | 439 kts | 321° |
| 2026-05-06 14:50 | 36.49266 | 13.80048 | 25594 ft | 442 kts | 323° |
| 2026-05-06 14:50 | 36.51964 | 13.78163 | 25921 ft | 448 kts | 330° |
| 2026-05-06 14:50 | 36.54775 | 13.76472 | 26241 ft | 450 kts | 330° |
| 2026-05-06 14:51 | 36.57591 | 13.74778 | 26560 ft | 451 kts | 330° |
| 2026-05-06 14:51 | 36.60432 | 13.73070 | 26871 ft | 453 kts | 330° |
| 2026-05-06 14:51 | 36.63269 | 13.71354 | 27174 ft | 455 kts | 329° |
| 2026-05-06 14:51 | 36.66121 | 13.69621 | 27474 ft | 457 kts | 329° |
| 2026-05-06 14:52 | 36.68983 | 13.67881 | 27772 ft | 459 kts | 329° |
| 2026-05-06 14:52 | 36.71821 | 13.66159 | 28081 ft | 460 kts | 329° |
| 2026-05-06 14:52 | 36.74694 | 13.64420 | 28509 ft | 459 kts | 329° |
| 2026-05-06 14:52 | 36.77566 | 13.62680 | 28941 ft | 458 kts | 329° |
| 2026-05-06 14:53 | 36.80426 | 13.60945 | 29366 ft | 457 kts | 329° |
| 2026-05-06 14:53 | 36.83281 | 13.59211 | 29789 ft | 456 kts | 329° |
| 2026-05-06 14:53 | 36.86128 | 13.57477 | 30179 ft | 455 kts | 329° |
| 2026-05-06 14:53 | 36.88969 | 13.55741 | 30530 ft | 454 kts | 328° |
| 2026-05-06 14:54 | 36.91843 | 13.53982 | 30883 ft | 453 kts | 328° |
| 2026-05-06 14:54 | 36.94635 | 13.52274 | 31232 ft | 453 kts | 328° |
| 2026-05-06 14:54 | 36.97465 | 13.50545 | 31577 ft | 452 kts | 328° |
| 2026-05-06 14:54 | 37.00297 | 13.48814 | 31928 ft | 451 kts | 328° |
| 2026-05-06 14:55 | 37.03120 | 13.47085 | 32186 ft | 453 kts | 328° |
| 2026-05-06 14:55 | 37.05961 | 13.45338 | 32317 ft | 457 kts | 328° |
| 2026-05-06 14:55 | 37.08831 | 13.43573 | 32450 ft | 461 kts | 328° |
| 2026-05-06 14:55 | 37.11716 | 13.41804 | 32587 ft | 465 kts | 328° |
| 2026-05-06 14:56 | 37.14632 | 13.40018 | 32791 ft | 466 kts | 328° |
| 2026-05-06 14:56 | 37.17544 | 13.38232 | 33077 ft | 466 kts | 328° |
| 2026-05-06 14:56 | 37.20449 | 13.36449 | 33369 ft | 466 kts | 328° |
| 2026-05-06 14:56 | 37.23367 | 13.34657 | 33671 ft | 466 kts | 328° |
| 2026-05-06 14:57 | 37.26282 | 13.32862 | 33933 ft | 466 kts | 328° |
| 2026-05-06 14:57 | 37.32086 | 13.29278 | 33994 ft | 465 kts | 328° |
| 2026-05-06 14:58 | 37.37888 | 13.25687 | 33993 ft | 464 kts | 328° |
| 2026-05-06 14:58 | 37.43682 | 13.22091 | 33994 ft | 464 kts | 327° |
| 2026-05-06 14:59 | 37.49467 | 13.18502 | 33995 ft | 464 kts | 328° |
| 2026-05-06 14:59 | 37.55398 | 13.15212 | 33991 ft | 467 kts | 332° |
| 2026-05-06 15:00 | 37.61434 | 13.12176 | 33998 ft | 467 kts | 332° |
| 2026-05-06 15:00 | 37.67418 | 13.09116 | 33997 ft | 466 kts | 331° |
| 2026-05-06 15:01 | 37.73402 | 13.05948 | 33993 ft | 466 kts | 331° |
| 2026-05-06 15:01 | 37.79370 | 13.02746 | 33982 ft | 466 kts | 331° |
| 2026-05-06 15:02 | 37.85351 | 12.99557 | 33983 ft | 467 kts | 331° |
| 2026-05-06 15:02 | 37.91342 | 12.96378 | 33994 ft | 467 kts | 331° |
| 2026-05-06 15:03 | 37.97331 | 12.93185 | 33993 ft | 467 kts | 331° |
| 2026-05-06 15:03 | 38.03323 | 12.89983 | 33994 ft | 467 kts | 331° |
| 2026-05-06 15:04 | 38.09318 | 12.86792 | 33999 ft | 467 kts | 331° |
| 2026-05-06 15:04 | 38.15308 | 12.83592 | 33993 ft | 467 kts | 330° |
| 2026-05-06 15:05 | 38.21303 | 12.80367 | 33997 ft | 467 kts | 330° |
| 2026-05-06 15:05 | 38.27281 | 12.77143 | 34000 ft | 467 kts | 330° |
| 2026-05-06 15:06 | 38.33267 | 12.73911 | 33994 ft | 467 kts | 330° |
| 2026-05-06 15:06 | 38.39250 | 12.70690 | 33993 ft | 467 kts | 330° |
| 2026-05-06 15:07 | 38.45238 | 12.67457 | 33998 ft | 467 kts | 330° |
| 2026-05-06 15:07 | 38.51183 | 12.64235 | 33995 ft | 467 kts | 330° |
| 2026-05-06 15:08 | 38.57200 | 12.60967 | 33979 ft | 467 kts | 330° |
| 2026-05-06 15:08 | 38.63148 | 12.57736 | 33989 ft | 467 kts | 330° |
| 2026-05-06 15:09 | 38.69126 | 12.54477 | 33991 ft | 468 kts | 330° |
| 2026-05-06 15:09 | 38.75118 | 12.51205 | 33991 ft | 468 kts | 330° |
| 2026-05-06 15:10 | 38.81110 | 12.47934 | 33981 ft | 468 kts | 330° |
| 2026-05-06 15:10 | 38.87109 | 12.44660 | 33989 ft | 469 kts | 330° |
| 2026-05-06 15:11 | 38.93139 | 12.41431 | 33986 ft | 470 kts | 331° |
| 2026-05-06 15:11 | 38.99192 | 12.38268 | 33986 ft | 470 kts | 332° |
| 2026-05-06 15:12 | 39.05264 | 12.35087 | 33987 ft | 470 kts | 331° |
| 2026-05-06 15:12 | 39.11317 | 12.31888 | 33986 ft | 471 kts | 331° |
| 2026-05-06 15:13 | 39.17369 | 12.28677 | 33988 ft | 471 kts | 331° |
| 2026-05-06 15:13 | 39.23450 | 12.25455 | 33990 ft | 472 kts | 331° |
| 2026-05-06 15:14 | 39.29480 | 12.22248 | 33985 ft | 472 kts | 331° |
| 2026-05-06 15:14 | 39.35601 | 12.18981 | 33984 ft | 473 kts | 331° |
| 2026-05-06 15:15 | 39.41660 | 12.15752 | 33986 ft | 474 kts | 331° |
| 2026-05-06 15:15 | 39.47757 | 12.12495 | 33990 ft | 475 kts | 331° |
| 2026-05-06 15:16 | 39.53867 | 12.09219 | 33982 ft | 476 kts | 331° |
| 2026-05-06 15:16 | 39.59995 | 12.05929 | 33978 ft | 477 kts | 331° |
| 2026-05-06 15:17 | 39.66124 | 12.02633 | 33983 ft | 478 kts | 331° |
| 2026-05-06 15:17 | 39.72270 | 11.99319 | 33984 ft | 478 kts | 330° |
| 2026-05-06 15:18 | 39.78424 | 11.95995 | 33984 ft | 479 kts | 330° |
| 2026-05-06 15:18 | 39.84578 | 11.92673 | 33990 ft | 480 kts | 330° |
| 2026-05-06 15:19 | 39.90744 | 11.89329 | 33992 ft | 480 kts | 330° |
| 2026-05-06 15:19 | 39.96914 | 11.85975 | 33981 ft | 481 kts | 330° |
| 2026-05-06 15:20 | 40.03104 | 11.82603 | 33978 ft | 483 kts | 330° |
| 2026-05-06 15:20 | 40.09277 | 11.79239 | 33978 ft | 484 kts | 330° |
| 2026-05-06 15:21 | 40.15501 | 11.75838 | 33975 ft | 485 kts | 330° |
| 2026-05-06 15:21 | 40.21731 | 11.72434 | 33984 ft | 486 kts | 330° |
| 2026-05-06 15:22 | 40.27971 | 11.69013 | 33979 ft | 486 kts | 330° |
| 2026-05-06 15:22 | 40.34220 | 11.65581 | 33984 ft | 486 kts | 329° |
| 2026-05-06 15:23 | 40.39443 | 11.62709 | 33987 ft | 487 kts | 330° |
| 2026-05-06 15:23 | 40.45758 | 11.59412 | 33982 ft | 489 kts | 331° |
| 2026-05-06 15:24 | 40.52088 | 11.56264 | 33979 ft | 490 kts | 332° |
| 2026-05-06 15:24 | 40.58450 | 11.53078 | 33980 ft | 490 kts | 331° |
| 2026-05-06 15:25 | 40.64807 | 11.49833 | 33977 ft | 490 kts | 330° |
| 2026-05-06 15:25 | 40.71151 | 11.46559 | 33977 ft | 490 kts | 330° |
| 2026-05-06 15:26 | 40.77499 | 11.43291 | 33972 ft | 491 kts | 330° |
| 2026-05-06 15:26 | 40.83870 | 11.40026 | 33965 ft | 491 kts | 330° |
| 2026-05-06 15:27 | 40.90196 | 11.36618 | 33970 ft | 490 kts | 329° |
| 2026-05-06 15:27 | 40.96450 | 11.33045 | 33967 ft | 489 kts | 328° |
| 2026-05-06 15:28 | 41.02700 | 11.29461 | 33969 ft | 490 kts | 328° |
| 2026-05-06 15:28 | 41.08968 | 11.25917 | 33967 ft | 491 kts | 329° |
| 2026-05-06 15:29 | 41.15265 | 11.22390 | 33967 ft | 491 kts | 329° |
| 2026-05-06 15:29 | 41.21562 | 11.18858 | 33963 ft | 491 kts | 328° |
| 2026-05-06 15:30 | 41.27861 | 11.15294 | 33953 ft | 491 kts | 328° |
| 2026-05-06 15:30 | 41.34141 | 11.11712 | 33972 ft | 491 kts | 328° |
| 2026-05-06 15:31 | 41.40434 | 11.08128 | 33966 ft | 492 kts | 328° |
| 2026-05-06 15:31 | 41.46727 | 11.04547 | 33960 ft | 492 kts | 328° |
| 2026-05-06 15:32 | 41.56173 | 10.99166 | 33956 ft | 492 kts | 328° |
| 2026-05-06 15:32 | 41.62432 | 10.95579 | 33956 ft | 492 kts | 328° |
| 2026-05-06 15:33 | 41.68727 | 10.91949 | 33958 ft | 493 kts | 327° |
| 2026-05-06 15:33 | 41.75027 | 10.88316 | 33952 ft | 493 kts | 327° |
| 2026-05-06 15:34 | 41.81331 | 10.84686 | 33946 ft | 494 kts | 327° |
| 2026-05-06 15:34 | 41.87650 | 10.81046 | 33945 ft | 494 kts | 327° |
| 2026-05-06 15:35 | 41.93966 | 10.77395 | 33942 ft | 494 kts | 327° |
| 2026-05-06 15:35 | 42.00282 | 10.73715 | 33936 ft | 495 kts | 327° |
| 2026-05-06 15:36 | 42.06606 | 10.70033 | 33936 ft | 495 kts | 327° |
| 2026-05-06 15:36 | 42.12936 | 10.66349 | 33925 ft | 496 kts | 327° |
| 2026-05-06 15:37 | 42.19268 | 10.62652 | 33929 ft | 496 kts | 327° |
| 2026-05-06 15:37 | 42.25595 | 10.58946 | 33936 ft | 496 kts | 327° |
| 2026-05-06 15:38 | 42.31894 | 10.55165 | 33934 ft | 494 kts | 326° |
| 2026-05-06 15:38 | 42.38095 | 10.51170 | 33937 ft | 493 kts | 326° |
| 2026-05-06 15:39 | 42.44257 | 10.47134 | 33945 ft | 492 kts | 326° |
| 2026-05-06 15:39 | 42.50438 | 10.43134 | 33950 ft | 492 kts | 327° |
| 2026-05-06 15:40 | 42.56629 | 10.39161 | 33954 ft | 492 kts | 328° |
| 2026-05-06 15:40 | 42.62768 | 10.35208 | 33956 ft | 491 kts | 327° |
| 2026-05-06 15:41 | 42.68973 | 10.31195 | 33950 ft | 491 kts | 328° |
| 2026-05-06 15:41 | 42.75108 | 10.27223 | 33941 ft | 491 kts | 328° |
| 2026-05-06 15:42 | 42.81276 | 10.23220 | 33936 ft | 491 kts | 328° |
| 2026-05-06 15:42 | 42.87444 | 10.19204 | 33932 ft | 492 kts | 327° |
| 2026-05-06 15:43 | 42.93620 | 10.15172 | 33931 ft | 492 kts | 327° |
| 2026-05-06 15:43 | 42.99799 | 10.11134 | 33933 ft | 492 kts | 327° |
| 2026-05-06 15:44 | 43.05981 | 10.07094 | 33934 ft | 493 kts | 327° |
| 2026-05-06 15:44 | 43.12161 | 10.03035 | 33936 ft | 493 kts | 327° |
| 2026-05-06 15:45 | 43.18348 | 9.98957 | 33936 ft | 493 kts | 327° |
| 2026-05-06 15:45 | 43.24525 | 9.94883 | 33944 ft | 493 kts | 327° |
| 2026-05-06 15:46 | 43.30680 | 9.90825 | 33946 ft | 493 kts | 327° |
| 2026-05-06 15:46 | 43.36846 | 9.86733 | 33945 ft | 493 kts | 327° |
| 2026-05-06 15:47 | 43.43022 | 9.82622 | 33946 ft | 492 kts | 327° |
| 2026-05-06 15:47 | 43.49186 | 9.78515 | 33931 ft | 492 kts | 326° |
| 2026-05-06 15:48 | 43.55410 | 9.74553 | 33934 ft | 498 kts | 332° |
| 2026-05-06 15:48 | 43.61959 | 9.71372 | 33923 ft | 492 kts | 330° |
| 2026-05-06 15:49 | 43.64819 | 9.69180 | 33915 ft | 460 kts | 313° |
| 2026-05-06 15:49 | 43.67129 | 9.66152 | 33916 ft | 456 kts | 304° |
| 2026-05-06 15:49 | 43.71459 | 9.59615 | 33915 ft | 464 kts | 304° |
| 2026-05-06 15:50 | 43.75808 | 9.53004 | 33910 ft | 465 kts | 304° |
| 2026-05-06 15:50 | 43.80162 | 9.46388 | 33906 ft | 466 kts | 304° |
| 2026-05-06 15:51 | 43.84534 | 9.39745 | 33905 ft | 466 kts | 304° |
| 2026-05-06 15:51 | 43.88903 | 9.33113 | 33904 ft | 466 kts | 304° |
| 2026-05-06 15:52 | 43.93284 | 9.26472 | 33896 ft | 466 kts | 303° |
| 2026-05-06 15:52 | 43.97669 | 9.19837 | 33893 ft | 467 kts | 303° |
| 2026-05-06 15:53 | 44.02062 | 9.13194 | 33903 ft | 466 kts | 303° |
| 2026-05-06 15:53 | 44.06447 | 9.06557 | 33900 ft | 466 kts | 303° |
| 2026-05-06 15:54 | 44.10832 | 8.99917 | 33904 ft | 466 kts | 303° |
| 2026-05-06 15:54 | 44.15211 | 8.93285 | 33910 ft | 465 kts | 303° |
| 2026-05-06 15:55 | 44.19592 | 8.86655 | 33914 ft | 465 kts | 303° |
| 2026-05-06 15:55 | 44.23971 | 8.80039 | 33920 ft | 464 kts | 304° |
| 2026-05-06 15:56 | 44.26363 | 8.77034 | 33913 ft | 479 kts | 317° |
| 2026-05-06 15:56 | 44.29378 | 8.74876 | 33907 ft | 498 kts | 333° |
| 2026-05-06 15:56 | 44.36084 | 8.72156 | 33896 ft | 503 kts | 336° |
| 2026-05-06 15:57 | 44.42835 | 8.69540 | 33890 ft | 504 kts | 336° |
| 2026-05-06 15:57 | 44.49592 | 8.66914 | 33883 ft | 504 kts | 336° |
| 2026-05-06 15:58 | 44.56346 | 8.64249 | 33860 ft | 504 kts | 336° |
| 2026-05-06 15:58 | 44.63097 | 8.61564 | 33842 ft | 504 kts | 336° |
| 2026-05-06 15:59 | 44.69851 | 8.58879 | 33833 ft | 505 kts | 336° |
| 2026-05-06 15:59 | 44.76622 | 8.56179 | 33830 ft | 505 kts | 336° |
| 2026-05-06 16:00 | 44.83380 | 8.53481 | 33830 ft | 505 kts | 336° |
| 2026-05-06 16:00 | 44.90146 | 8.50781 | 33832 ft | 505 kts | 336° |
| 2026-05-06 16:01 | 44.96910 | 8.48067 | 33827 ft | 505 kts | 336° |
| 2026-05-06 16:01 | 45.03671 | 8.45348 | 33825 ft | 505 kts | 336° |
| 2026-05-06 16:02 | 45.10381 | 8.42656 | 33840 ft | 494 kts | 336° |
| 2026-05-06 16:02 | 45.16920 | 8.40021 | 33877 ft | 490 kts | 336° |
| 2026-05-06 16:03 | 45.23463 | 8.37358 | 33889 ft | 489 kts | 336° |
| 2026-05-06 16:03 | 45.30008 | 8.34691 | 33894 ft | 490 kts | 336° |
| 2026-05-06 16:04 | 45.36563 | 8.32019 | 33888 ft | 490 kts | 336° |
| 2026-05-06 16:04 | 45.43127 | 8.29348 | 33889 ft | 490 kts | 336° |
| 2026-05-06 16:05 | 45.49681 | 8.26677 | 33860 ft | 490 kts | 336° |
| 2026-05-06 16:05 | 45.56232 | 8.23994 | 33862 ft | 490 kts | 336° |
| 2026-05-06 16:06 | 45.62784 | 8.21291 | 33863 ft | 490 kts | 336° |
| 2026-05-06 16:06 | 45.69330 | 8.18587 | 33872 ft | 490 kts | 336° |
| 2026-05-06 16:07 | 45.75892 | 8.15880 | 33895 ft | 491 kts | 337° |
| 2026-05-06 16:07 | 45.82445 | 8.13176 | 33882 ft | 489 kts | 336° |
| 2026-05-06 16:08 | 45.88983 | 8.10458 | 33881 ft | 489 kts | 337° |
| 2026-05-06 16:08 | 45.95519 | 8.07742 | 33889 ft | 489 kts | 337° |
| 2026-05-06 16:09 | 46.00956 | 8.05477 | 33904 ft | 490 kts | 337° |
| 2026-05-06 16:09 | 46.08545 | 8.02129 | 33895 ft | 483 kts | 330° |
| 2026-05-06 16:10 | 46.13694 | 7.98847 | 33914 ft | 492 kts | 329° |
| 2026-05-06 16:10 | 46.21026 | 7.94140 | 33919 ft | 498 kts | 329° |
| 2026-05-06 16:11 | 46.26341 | 7.90735 | 33924 ft | 499 kts | 329° |
| 2026-05-06 16:11 | 46.32680 | 7.86661 | 33927 ft | 498 kts | 329° |
| 2026-05-06 16:12 | 46.39005 | 7.82576 | 33929 ft | 498 kts | 329° |
| 2026-05-06 16:12 | 46.45321 | 7.78482 | 33937 ft | 497 kts | 330° |
| 2026-05-06 16:13 | 46.51629 | 7.74386 | 33939 ft | 497 kts | 330° |
| 2026-05-06 16:13 | 46.57932 | 7.70290 | 33935 ft | 496 kts | 330° |
| 2026-05-06 16:14 | 46.64223 | 7.66183 | 33927 ft | 496 kts | 330° |
| 2026-05-06 16:14 | 46.70512 | 7.62071 | 33924 ft | 495 kts | 330° |
| 2026-05-06 16:15 | 46.76796 | 7.57949 | 33898 ft | 495 kts | 330° |
| 2026-05-06 16:15 | 46.83076 | 7.53814 | 33892 ft | 495 kts | 330° |
| 2026-05-06 16:16 | 46.89355 | 7.49678 | 33888 ft | 495 kts | 331° |
| 2026-05-06 16:16 | 46.95631 | 7.45525 | 33893 ft | 495 kts | 331° |
| 2026-05-06 16:17 | 47.01866 | 7.41386 | 33895 ft | 495 kts | 331° |
| 2026-05-06 16:17 | 47.08141 | 7.37213 | 33920 ft | 495 kts | 331° |
| 2026-05-06 16:18 | 47.14299 | 7.33128 | 33916 ft | 480 kts | 331° |
| 2026-05-06 16:18 | 47.20372 | 7.29078 | 33922 ft | 478 kts | 331° |
| 2026-05-06 16:19 | 47.24413 | 7.26366 | 33918 ft | 478 kts | 331° |
| 2026-05-06 16:19 | 47.30099 | 7.22546 | 33392 ft | 477 kts | 332° |
| 2026-05-06 16:20 | 47.33144 | 7.20497 | 32160 ft | 485 kts | 332° |
| 2026-05-06 16:20 | 47.36128 | 7.18179 | 31104 ft | 485 kts | 323° |
| 2026-05-06 16:20 | 47.38806 | 7.15191 | 30129 ft | 483 kts | 315° |
| 2026-05-06 16:20 | 47.41109 | 7.11628 | 29120 ft | 477 kts | 306° |
| 2026-05-06 16:21 | 47.42997 | 7.07666 | 27536 ft | 469 kts | 298° |
| 2026-05-06 16:21 | 47.44423 | 7.03348 | 25979 ft | 463 kts | 291° |
| 2026-05-06 16:21 | 47.45741 | 6.99069 | 24993 ft | 452 kts | 296° |
| 2026-05-06 16:21 | 47.47551 | 6.95359 | 24804 ft | 440 kts | 311° |
| 2026-05-06 16:22 | 47.49838 | 6.92495 | 24678 ft | 426 kts | 326° |
| 2026-05-06 16:22 | 47.52415 | 6.90607 | 24551 ft | 412 kts | 340° |
| 2026-05-06 16:22 | 47.55146 | 6.89597 | 24432 ft | 398 kts | 348° |
| 2026-05-06 16:22 | 47.57843 | 6.89266 | 24308 ft | 384 kts | 7° |
| 2026-05-06 16:23 | 47.60314 | 6.90467 | 24192 ft | 368 kts | 33° |
| 2026-05-06 16:23 | 47.62152 | 6.92942 | 24064 ft | 350 kts | 58° |
| 2026-05-06 16:23 | 47.63143 | 6.96109 | 23943 ft | 332 kts | 80° |
| 2026-05-06 16:23 | 47.63533 | 6.99425 | 23688 ft | 324 kts | 84° |
| 2026-05-06 16:24 | 47.63881 | 7.02710 | 23348 ft | 321 kts | 84° |
| 2026-05-06 16:24 | 47.64221 | 7.05977 | 22949 ft | 320 kts | 84° |
| 2026-05-06 16:24 | 47.64560 | 7.09230 | 22571 ft | 318 kts | 84° |
| 2026-05-06 16:24 | 47.64897 | 7.12455 | 22099 ft | 315 kts | 84° |
| 2026-05-06 16:25 | 47.65232 | 7.15656 | 21481 ft | 313 kts | 84° |
| 2026-05-06 16:25 | 47.65565 | 7.18833 | 20910 ft | 311 kts | 84° |
| 2026-05-06 16:25 | 47.66078 | 7.21921 | 20559 ft | 308 kts | 64° |
| 2026-05-06 16:25 | 47.67458 | 7.24334 | 20455 ft | 312 kts | 33° |
| 2026-05-06 16:26 | 47.69485 | 7.25404 | 20341 ft | 312 kts | 1° |
| 2026-05-06 16:26 | 47.71553 | 7.24842 | 20217 ft | 307 kts | 330° |
| 2026-05-06 16:26 | 47.73144 | 7.22778 | 20104 ft | 298 kts | 297° |
| 2026-05-06 16:26 | 47.73732 | 7.19917 | 19998 ft | 289 kts | 265° |
| 2026-05-06 16:27 | 47.73205 | 7.17138 | 19913 ft | 280 kts | 233° |
| 2026-05-06 16:27 | 47.71837 | 7.15171 | 19817 ft | 279 kts | 213° |
| 2026-05-06 16:27 | 47.70179 | 7.13672 | 19709 ft | 279 kts | 210° |
| 2026-05-06 16:27 | 47.68501 | 7.12221 | 19600 ft | 279 kts | 210° |
| 2026-05-06 16:28 | 47.66823 | 7.10774 | 19498 ft | 279 kts | 210° |
| 2026-05-06 16:28 | 47.65155 | 7.09305 | 19390 ft | 278 kts | 213° |
| 2026-05-06 16:28 | 47.63601 | 7.07590 | 19293 ft | 278 kts | 219° |
| 2026-05-06 16:28 | 47.62132 | 7.05723 | 19186 ft | 278 kts | 221° |
| 2026-05-06 16:29 | 47.60698 | 7.03812 | 19078 ft | 277 kts | 221° |
| 2026-05-06 16:29 | 47.59268 | 7.01895 | 18970 ft | 277 kts | 221° |
| 2026-05-06 16:29 | 47.57983 | 6.99793 | 18846 ft | 277 kts | 240° |
| 2026-05-06 16:29 | 47.57446 | 6.97074 | 18729 ft | 280 kts | 266° |
| 2026-05-06 16:30 | 47.57835 | 6.94238 | 18596 ft | 287 kts | 294° |
| 2026-05-06 16:30 | 47.58607 | 6.92613 | 18525 ft | 292 kts | 314° |
| 2026-05-06 16:30 | 47.61038 | 6.90927 | 18335 ft | 300 kts | 355° |
| 2026-05-06 16:30 | 47.63075 | 6.91484 | 18202 ft | 303 kts | 28° |
| 2026-05-06 16:31 | 47.64635 | 6.93515 | 18052 ft | 301 kts | 60° |
| 2026-05-06 16:31 | 47.65280 | 6.96403 | 17916 ft | 295 kts | 91° |
| 2026-05-06 16:31 | 47.65155 | 6.99432 | 17779 ft | 295 kts | 98° |
| 2026-05-06 16:31 | 47.64983 | 7.02459 | 17654 ft | 296 kts | 97° |
| 2026-05-06 16:32 | 47.64822 | 7.05499 | 17511 ft | 296 kts | 97° |
| 2026-05-06 16:32 | 47.64667 | 7.08542 | 17380 ft | 295 kts | 98° |
| 2026-05-06 16:32 | 47.64194 | 7.11463 | 17026 ft | 290 kts | 121° |
| 2026-05-06 16:32 | 47.62930 | 7.13709 | 16662 ft | 282 kts | 148° |
| 2026-05-06 16:33 | 47.61172 | 7.14884 | 16316 ft | 277 kts | 169° |
| 2026-05-06 16:33 | 47.59309 | 7.15555 | 16041 ft | 275 kts | 169° |
| 2026-05-06 16:33 | 47.57441 | 7.16218 | 15738 ft | 274 kts | 169° |
| 2026-05-06 16:34 | 47.53758 | 7.17521 | 15206 ft | 272 kts | 169° |
| 2026-05-06 16:34 | 47.51924 | 7.18172 | 14931 ft | 271 kts | 170° |
| 2026-05-06 16:34 | 47.50092 | 7.18826 | 14655 ft | 270 kts | 170° |
| 2026-05-06 16:34 | 47.48271 | 7.19477 | 14382 ft | 269 kts | 170° |
| 2026-05-06 16:35 | 47.46458 | 7.20126 | 14076 ft | 266 kts | 169° |
| 2026-05-06 16:35 | 47.44789 | 7.21301 | 13582 ft | 271 kts | 143° |
| 2026-05-06 16:35 | 47.43676 | 7.23563 | 13052 ft | 279 kts | 113° |
| 2026-05-06 16:35 | 47.43256 | 7.26360 | 12482 ft | 281 kts | 105° |
| 2026-05-06 16:36 | 47.42622 | 7.29027 | 12039 ft | 271 kts | 122° |
| 2026-05-06 16:36 | 47.41731 | 7.31481 | 11682 ft | 270 kts | 123° |
| 2026-05-06 16:36 | 47.40803 | 7.33902 | 11321 ft | 272 kts | 124° |
| 2026-05-06 16:36 | 47.39850 | 7.36315 | 11065 ft | 271 kts | 124° |
| 2026-05-06 16:37 | 47.38890 | 7.38715 | 10770 ft | 271 kts | 125° |
| 2026-05-06 16:37 | 47.37934 | 7.41087 | 10530 ft | 268 kts | 125° |
| 2026-05-06 16:37 | 47.36981 | 7.43450 | 10247 ft | 268 kts | 125° |
| 2026-05-06 16:37 | 47.36028 | 7.45809 | 9968 ft | 267 kts | 125° |
| 2026-05-06 16:38 | 47.35092 | 7.48121 | 9658 ft | 265 kts | 125° |
| 2026-05-06 16:38 | 47.34139 | 7.50479 | 9107 ft | 264 kts | 125° |
| 2026-05-06 16:38 | 47.33204 | 7.52793 | 8574 ft | 262 kts | 125° |
| 2026-05-06 16:38 | 47.32281 | 7.55079 | 8115 ft | 257 kts | 125° |
| 2026-05-06 16:39 | 47.31371 | 7.57335 | 7751 ft | 255 kts | 125° |
| 2026-05-06 16:39 | 47.30587 | 7.59641 | 7428 ft | 259 kts | 106° |
| 2026-05-06 16:39 | 47.30665 | 7.62321 | 7129 ft | 266 kts | 74° |
| 2026-05-06 16:39 | 47.31526 | 7.64892 | 6951 ft | 288 kts | 52° |
| 2026-05-06 16:40 | 47.32965 | 7.66863 | 6789 ft | 277 kts | 29° |
| 2026-05-06 16:40 | 47.34694 | 7.67920 | 6571 ft | 263 kts | 7° |
| 2026-05-06 16:40 | 47.36452 | 7.68049 | 6444 ft | 246 kts | 348° |
| 2026-05-06 16:40 | 47.38049 | 7.67413 | 6290 ft | 233 kts | 330° |
| 2026-05-06 16:41 | 47.39508 | 7.66411 | 5969 ft | 231 kts | 329° |
| 2026-05-06 16:41 | 47.40969 | 7.65396 | 5602 ft | 234 kts | 330° |
| 2026-05-06 16:41 | 47.42427 | 7.64388 | 5244 ft | 236 kts | 330° |
| 2026-05-06 16:41 | 47.43919 | 7.63359 | 4880 ft | 238 kts | 330° |
| 2026-05-06 16:42 | 47.45422 | 7.62321 | 4503 ft | 238 kts | 330° |
| 2026-05-06 16:42 | 47.46898 | 7.61303 | 4121 ft | 229 kts | 330° |
| 2026-05-06 16:42 | 47.48310 | 7.60328 | 3770 ft | 219 kts | 330° |
| 2026-05-06 16:42 | 47.49658 | 7.59396 | 3444 ft | 209 kts | 330° |
| 2026-05-06 16:43 | 47.50951 | 7.58500 | 3136 ft | 200 kts | 330° |
| 2026-05-06 16:43 | 47.52171 | 7.57656 | 2834 ft | 190 kts | 330° |
| 2026-05-06 16:43 | 47.53346 | 7.56841 | 2533 ft | 182 kts | 330° |
| 2026-05-06 16:43 | 47.54445 | 7.56081 | 2247 ft | 165 kts | 331° |
| 2026-05-06 16:44 | 47.55448 | 7.55385 | 1962 ft | 153 kts | 332° |
| 2026-05-06 16:44 | 47.56373 | 7.54741 | 1719 ft | 143 kts | 334° |
| 2026-05-06 16:44 | 47.57258 | 7.54126 | 1478 ft | 139 kts | 335° |
| 2026-05-06 16:44 | 47.58127 | 7.53522 | 1281 ft | 137 kts | 335° |
| 2026-05-06 16:45 | 47.58989 | 7.52922 | 1068 ft | 137 kts | 335° |
| 2026-05-06 16:45 | 47.59844 | 7.52330 | 900 ft | 131 kts | 335° |
| 2026-05-06 16:45 | 47.60583 | 7.51815 | 882 ft | 97 kts | 334° |
| 2026-05-06 16:45 | 47.61042 | 7.51489 | 873 ft | 55 kts | 334° |
| 2026-05-06 16:46 | 47.61363 | 7.51268 | 869 ft | 46 kts | 336° |
| 2026-05-06 16:46 | 47.61623 | 7.51086 | 876 ft | 37 kts | 333° |
| 2026-05-06 16:46 | 47.61793 | 7.51059 | 876 ft | 11 kts | 43° |
| 2026-05-06 16:46 | 47.61806 | 7.51109 | 876 ft | 3 kts | 81° |
| 2026-05-06 16:47 | 47.61808 | 7.51137 | 875 ft | 3 kts | 84° |
| 2026-05-06 16:47 | 47.61802 | 7.51229 | 873 ft | 12 kts | 114° |
| 2026-05-06 16:47 | 47.61754 | 7.51293 | 873 ft | 7 kts | 153° |
| 2026-05-06 16:47 | 47.61717 | 7.51321 | 872 ft | 5 kts | 153° |
| 2026-05-06 16:48 | 47.61685 | 7.51344 | 870 ft | 5 kts | 154° |
| 2026-05-06 16:48 | 47.61632 | 7.51380 | 868 ft | 13 kts | 155° |
| 2026-05-06 16:48 | 47.61542 | 7.51442 | 861 ft | 14 kts | 155° |
| 2026-05-06 16:48 | 47.61458 | 7.51501 | 860 ft | 12 kts | 155° |
| 2026-05-06 16:49 | 47.61401 | 7.51540 | 866 ft | 6 kts | 155° |
| 2026-05-06 16:49 | 47.61379 | 7.51556 | 867 ft | 1 kts | 155° |
| 2026-05-06 16:49 | 47.61354 | 7.51573 | 867 ft | 8 kts | 155° |
| 2026-05-06 16:49 | 47.61278 | 7.51626 | 869 ft | 13 kts | 154° |
| 2026-05-06 16:50 | 47.61210 | 7.51674 | 871 ft | 8 kts | 155° |
| 2026-05-06 16:50 | 47.61178 | 7.51696 | 872 ft | 3 kts | 155° |
| 2026-05-06 16:50 | 47.61129 | 7.51729 | 873 ft | 13 kts | 155° |
| 2026-05-06 16:50 | 47.61060 | 7.51777 | 875 ft | 20 kts | 155° |
| 2026-05-06 16:51 | 47.60857 | 7.51916 | 881 ft | 27 kts | 153° |
| 2026-05-06 16:51 | 47.60678 | 7.52052 | 882 ft | 32 kts | 154° |
| 2026-05-06 16:51 | 47.60461 | 7.52194 | 883 ft | 36 kts | 155° |
| 2026-05-06 16:51 | 47.60254 | 7.52342 | 884 ft | 30 kts | 153° |
| 2026-05-06 16:52 | 47.60183 | 7.52434 | 884 ft | 1 kts | 91° |
| 2026-05-06 16:52 | 47.60181 | 7.52464 | 884 ft | 6 kts | 107° |
| 2026-05-06 16:52 | 47.60125 | 7.52523 | 885 ft | 14 kts | 156° |
| 2026-05-06 16:52 | 47.60063 | 7.52565 | 885 ft | 5 kts | 152° |
| 2026-05-06 16:53 | 47.60048 | 7.52587 | 885 ft | 1 kts | 124° |
| 2026-05-06 16:53 | 47.60035 | 7.52631 | 886 ft | 7 kts | 107° |
| 2026-05-06 16:53 | 47.60031 | 7.52681 | 886 ft | 3 kts | 94° |
| 2026-05-06 16:53 | 47.60030 | 7.52690 | 886 ft | 1 kts | 94° |
| 2026-05-06 16:54 | 47.60034 | 7.52762 | 886 ft | 9 kts | 73° |
| 2026-05-06 16:54 | 47.60047 | 7.52829 | 886 ft | 5 kts | 85° |
| 2026-05-06 16:54 | 47.60029 | 7.52891 | 886 ft | 8 kts | 122° |
| 2026-05-06 16:54 | 47.60007 | 7.52940 | 887 ft | 4 kts | 120° |
| 2026-05-06 16:55 | 47.60002 | 7.52955 | 887 ft | 1 kts | 118° |
| 2026-05-06 16:55 | 47.59993 | 7.52982 | 887 ft | 1 kts | 114° |
| 2026-05-06 16:55 | 47.59993 | 7.52983 | 887 ft | 0 kts | 114° |
| 2026-05-06 16:55 | 47.59991 | 7.52990 | 887 ft | 0 kts | 115° |